Time;durP1;ratioP1;P1;durP2;ratioP2;P2;SDS_P1;SDS_P2;PMS_P1;PMS_P2;Temp;Humidity;BMP_temperature;BMP_pressure;BME280_temperature;BME280_humidity;BME280_pressure;Samples;Min_cycle;Max_cycle;Signal;HPM_P1;HPM_P2
2023/10/05 00:02:05;;;;;;;6.50;4.72;;;;;;;;;;6163001;23;20441;-82
2023/10/05 00:04:41;;;;;;;8.27;5.13;;;;;;;;;;6173145;23;20021;-82
2023/10/05 00:07:11;;;;;;;10.38;5.10;;;;;;;;;;6165910;23;20036;-82
2023/10/05 00:09:43;;;;;;;8.05;5.05;;;;;;;;;;6137316;23;20017;-82
2023/10/05 00:12:18;;;;;;;6.50;4.25;;;;;;;;;;6136098;23;20017;-82
2023/10/05 00:14:48;;;;;;;4.15;3.63;;;;;;;;;;6137104;23;20025;-82
2023/10/05 00:17:19;;;;;;;6.90;4.43;;;;;;;;;;6137338;23;20025;-82
2023/10/05 00:19:47;;;;;;;4.10;3.38;;;;;;;;;;6136163;23;20028;-82
2023/10/05 00:22:17;;;;;;;3.88;3.40;;;;;;;;;;6136177;23;20023;-82
2023/10/05 00:24:47;;;;;;;5.53;4.18;;;;;;;;;;6113471;23;20028;-82
2023/10/05 00:27:15;;;;;;;4.28;3.42;;;;;;;;;;6137375;23;20024;-82
2023/10/05 00:29:49;;;;;;;4.32;3.13;;;;;;;;;;6136549;23;20027;-82
2023/10/05 00:32:19;;;;;;;6.70;3.60;;;;;;;;;;6146483;23;20010;-82
2023/10/05 00:34:52;;;;;;;3.50;2.70;;;;;;;;;;6137647;23;20026;-82
2023/10/05 00:37:19;;;;;;;5.70;3.63;;;;;;;;;;6137375;23;20025;-82
2023/10/05 00:39:54;;;;;;;3.78;3.05;;;;;;;;;;6115749;23;20031;-82
2023/10/05 00:42:24;;;;;;;4.38;3.90;;;;;;;;;;6164004;23;20014;-82
2023/10/05 00:44:54;;;;;;;5.55;3.10;;;;;;;;;;6115306;23;20040;-82
2023/10/05 00:47:22;;;;;;;6.30;4.20;;;;;;;;;;6112824;23;20018;-82
2023/10/05 00:49:54;;;;;;;6.30;3.25;;;;;;;;;;6136530;23;20051;-82
2023/10/05 00:52:24;;;;;;;7.88;3.50;;;;;;;;;;6159451;23;20018;-82
2023/10/05 00:54:57;;;;;;;4.63;3.30;;;;;;;;;;6170684;23;20021;-82
2023/10/05 00:57:24;;;;;;;6.88;4.03;;;;;;;;;;6135936;23;20024;-82
2023/10/05 01:00:05;;;;;;;6.72;4.28;;;;;;;;;;6112177;23;20027;-82
2023/10/05 01:03:10;;;;;;;5.88;3.80;;;;;;;;;;6137041;23;20353;-82
2023/10/05 01:05:34;;;;;;;5.20;3.50;;;;;;;;;;6138543;23;20027;-82
2023/10/05 01:08:04;;;;;;;9.73;4.35;;;;;;;;;;6161623;23;20021;-82
2023/10/05 01:10:45;;;;;;;9.95;4.43;;;;;;;;;;6137041;23;20078;-82
2023/10/05 01:13:23;;;;;;;4.90;3.90;;;;;;;;;;6146451;23;20017;-82
2023/10/05 01:15:54;;;;;;;5.90;3.67;;;;;;;;;;6164116;23;20027;-82
2023/10/05 01:18:24;;;;;;;7.72;4.15;;;;;;;;;;6112724;23;20029;-82
2023/10/05 01:20:56;;;;;;;5.93;4.15;;;;;;;;;;6136373;23;20027;-82
2023/10/05 01:23:32;;;;;;;5.88;4.57;;;;;;;;;;6135038;23;20024;-82
2023/10/05 01:26:03;;;;;;;7.15;3.65;;;;;;;;;;6159810;23;20021;-82
2023/10/05 01:28:33;;;;;;;18.23;4.90;;;;;;;;;;6172173;23;20450;-82
2023/10/05 01:31:04;;;;;;;13.32;4.40;;;;;;;;;;6111864;23;20022;-82
2023/10/05 01:33:34;;;;;;;6.70;3.60;;;;;;;;;;6172919;23;20014;-82
2023/10/05 01:36:03;;;;;;;7.45;3.70;;;;;;;;;;6138818;23;20018;-82
2023/10/05 01:38:37;;;;;;;11.57;4.65;;;;;;;;;;6162730;23;20039;-82
2023/10/05 01:41:07;;;;;;;;;;;;;;;;;;6162367;23;20021;-82
2023/10/05 01:43:35;;;;;;;14.07;6.32;;;;;;;;;;6135681;23;19938;-82
2023/10/05 01:46:04;;;;;;;5.75;3.85;;;;;;;;;;6135939;23;20533;-82
2023/10/05 01:48:35;;;;;;;19.65;4.70;;;;;;;;;;6137027;23;20021;-82
2023/10/05 01:51:06;;;;;;;16.52;5.07;;;;;;;;;;6138685;23;20021;-82
2023/10/05 01:53:34;;;;;;;19.88;4.63;;;;;;;;;;6137400;23;20028;-82
2023/10/05 01:56:03;;;;;;;27.88;5.07;;;;;;;;;;6113937;23;20028;-82
2023/10/05 01:58:35;;;;;;;16.60;6.40;;;;;;;;;;6139224;23;20036;-82
2023/10/05 02:01:06;;;;;;;;;;;;;;;;;;6150106;23;20017;-82
2023/10/05 02:03:35;;;;;;;27.50;7.05;;;;;;;;;;6138952;23;19917;-82
2023/10/05 02:06:11;;;;;;;25.70;7.25;;;;;;;;;;6138609;23;20035;-82
2023/10/05 02:08:43;;;;;;;25.13;5.13;;;;;;;;;;6137646;23;20462;-82
2023/10/05 02:11:18;;;;;;;9.02;5.32;;;;;;;;;;6147234;23;20013;-82
2023/10/05 02:13:48;;;;;;;9.35;4.72;;;;;;;;;;6172855;23;20024;-82
2023/10/05 02:16:18;;;;;;;20.33;5.45;;;;;;;;;;6137384;23;20027;-82
2023/10/05 02:18:50;;;;;;;14.20;6.05;;;;;;;;;;6162612;23;20021;-82
2023/10/05 02:21:30;;;;;;;20.52;5.15;;;;;;;;;;6147957;23;20407;-82
2023/10/05 02:24:10;;;;;;;19.42;5.45;;;;;;;;;;6173727;23;20021;-82
2023/10/05 02:26:37;;;;;;;24.58;6.13;;;;;;;;;;6137855;23;20021;-82
2023/10/05 02:29:13;;;;;;;17.42;5.70;;;;;;;;;;6139010;23;20459;-82
2023/10/05 02:31:57;;;;;;;7.43;3.67;;;;;;;;;;6139589;23;20024;-82
2023/10/05 02:34:28;;;;;;;31.20;5.10;;;;;;;;;;6148428;23;20017;-82
2023/10/05 02:36:56;;;;;;;14.88;6.85;;;;;;;;;;6137510;23;20106;-82
2023/10/05 02:39:26;;;;;;;18.38;5.05;;;;;;;;;;6137171;23;20018;-82
2023/10/05 02:41:56;;;;;;;11.32;4.75;;;;;;;;;;6112157;23;20017;-82
2023/10/05 02:44:29;;;;;;;12.30;4.40;;;;;;;;;;6148196;23;20028;-82
2023/10/05 02:46:59;;;;;;;11.60;5.57;;;;;;;;;;6113093;23;20043;-82
2023/10/05 02:49:26;;;;;;;11.35;4.85;;;;;;;;;;6137379;23;20473;-82
2023/10/05 02:51:56;;;;;;;11.95;4.78;;;;;;;;;;6137660;23;20021;-82
2023/10/05 02:54:30;;;;;;;13.18;5.05;;;;;;;;;;6114965;23;20031;-82
2023/10/05 02:56:59;;;;;;;19.15;5.63;;;;;;;;;;6139593;23;20026;-82
2023/10/05 02:59:29;;;;;;;12.32;4.40;;;;;;;;;;6139233;23;20032;-82
2023/10/05 03:02:06;;;;;;;20.92;5.25;;;;;;;;;;6138195;23;20024;-82
2023/10/05 03:04:46;;;;;;;12.35;4.60;;;;;;;;;;6162196;23;20028;-83
2023/10/05 03:07:19;;;;;;;23.55;5.50;;;;;;;;;;6140002;23;20022;-82
2023/10/05 03:09:49;;;;;;;18.15;5.20;;;;;;;;;;6138090;23;20022;-82
2023/10/05 03:12:20;;;;;;;7.80;3.65;;;;;;;;;;6113509;23;20013;-82
2023/10/05 03:14:52;;;;;;;7.28;3.70;;;;;;;;;;6172050;23;20021;-82
2023/10/05 03:17:23;;;;;;;6.53;3.80;;;;;;;;;;6137356;23;20024;-82
2023/10/05 03:19:52;;;;;;;11.27;3.85;;;;;;;;;;6137981;23;20025;-81
2023/10/05 03:22:23;;;;;;;11.20;4.10;;;;;;;;;;6112108;23;20024;-81
2023/10/05 03:24:59;;;;;;;5.85;3.15;;;;;;;;;;6137766;23;20036;-81
2023/10/05 03:27:26;;;;;;;11.57;4.43;;;;;;;;;;6138080;23;20025;-81
2023/10/05 03:30:02;;;;;;;5.47;3.72;;;;;;;;;;6113271;23;20025;-81
2023/10/05 03:32:31;;;;;;;6.00;3.38;;;;;;;;;;6147957;23;20010;-81
2023/10/05 03:34:59;;;;;;;5.68;4.15;;;;;;;;;;6162069;23;20018;-81
2023/10/05 03:37:29;;;;;;;4.03;3.08;;;;;;;;;;6137954;23;20028;-82
2023/10/05 03:40:08;;;;;;;11.63;6.00;;;;;;;;;;6113324;23;20039;-82
2023/10/05 03:42:39;;;;;;;4.63;2.90;;;;;;;;;;6143628;23;20013;-82
2023/10/05 03:45:09;;;;;;;5.25;2.95;;;;;;;;;;6171777;23;20436;-81
2023/10/05 03:47:39;;;;;;;8.32;4.18;;;;;;;;;;6137716;23;20342;-81
2023/10/05 03:50:16;;;;;;;8.77;2.65;;;;;;;;;;6112604;23;20023;-81
2023/10/05 03:52:45;;;;;;;6.80;4.00;;;;;;;;;;6137274;23;20458;-81
2023/10/05 03:55:13;;;;;;;6.78;4.28;;;;;;;;;;6113972;23;20024;-81
2023/10/05 03:57:45;;;;;;;3.65;3.35;;;;;;;;;;6137217;23;20022;-81
2023/10/05 04:00:31;;;;;;;7.90;4.20;;;;;;;;;;6137937;23;20017;-81
2023/10/05 04:03:02;;;;;;;9.70;3.20;;;;;;;;;;6171000;23;20013;-81
2023/10/05 04:05:32;;;;;;;13.05;3.55;;;;;;;;;;6136624;23;20021;-81
2023/10/05 04:08:10;;;;;;;8.30;4.28;;;;;;;;;;6162143;23;20044;-82
2023/10/05 04:10:46;;;;;;;20.70;3.88;;;;;;;;;;6136856;23;20018;-82
2023/10/05 04:13:17;;;;;;;7.03;4.22;;;;;;;;;;6136905;23;20347;-82
2023/10/05 04:15:44;;;;;;;18.48;5.55;;;;;;;;;;6137500;23;20013;-81
2023/10/05 04:18:15;;;;;;;21.35;4.15;;;;;;;;;;6136709;23;20017;-81
2023/10/05 04:20:44;;;;;;;10.95;3.70;;;;;;;;;;6137137;23;20022;-81
2023/10/05 04:23:16;;;;;;;12.55;4.10;;;;;;;;;;6136610;23;20327;-81
2023/10/05 04:25:44;;;;;;;16.73;4.65;;;;;;;;;;6112700;23;20025;-81
2023/10/05 04:28:12;;;;;;;12.23;4.78;;;;;;;;;;6136928;23;20036;-82
2023/10/05 04:30:42;;;;;;;6.35;4.05;;;;;;;;;;6161934;23;20024;-82
2023/10/05 04:33:14;;;;;;;6.43;3.97;;;;;;;;;;6161433;23;20021;-81
2023/10/05 04:35:44;;;;;;;6.28;4.10;;;;;;;;;;6112854;23;20017;-81
2023/10/05 04:38:12;;;;;;;11.38;4.57;;;;;;;;;;6161899;23;20025;-81
2023/10/05 04:40:42;;;;;;;6.82;4.75;;;;;;;;;;6137038;23;20028;-81
2023/10/05 04:43:11;;;;;;;7.65;4.20;;;;;;;;;;6136972;23;20032;-81
2023/10/05 04:45:42;;;;;;;5.53;4.38;;;;;;;;;;6136830;23;20018;-81
2023/10/05 04:48:12;;;;;;;6.03;4.38;;;;;;;;;;6137707;23;20495;-81
2023/10/05 04:50:41;;;;;;;8.30;4.32;;;;;;;;;;6137115;23;20369;-81
2023/10/05 04:53:14;;;;;;;6.68;3.42;;;;;;;;;;6137374;23;20028;-81
2023/10/05 04:55:42;;;;;;;5.07;3.67;;;;;;;;;;6137085;23;20017;-81
2023/10/05 04:58:31;;;;;;;4.60;4.20;;;;;;;;;;6112340;23;20365;-81
2023/10/05 05:01:28;;;;;;;8.07;4.50;;;;;;;;;;6173883;23;20438;-81
2023/10/05 05:04:13;;;;;;;4.53;3.97;;;;;;;;;;6138991;23;20018;-81
2023/10/05 05:06:42;;;;;;;5.18;4.55;;;;;;;;;;6140120;23;20026;-81
2023/10/05 05:09:14;;;;;;;4.40;3.22;;;;;;;;;;6138851;23;20032;-81
2023/10/05 05:11:42;;;;;;;7.22;4.30;;;;;;;;;;6137592;23;20028;-82
2023/10/05 05:14:14;;;;;;;5.70;5.22;;;;;;;;;;6136954;23;20024;-82
2023/10/05 05:16:44;;;;;;;6.30;4.25;;;;;;;;;;6136096;23;20484;-82
2023/10/05 05:19:18;;;;;;;7.63;5.88;;;;;;;;;;6111575;23;20036;-82
2023/10/05 05:21:45;;;;;;;6.65;4.68;;;;;;;;;;6136145;23;20018;-82
2023/10/05 05:24:13;;;;;;;8.20;4.88;;;;;;;;;;6137990;23;20014;-82
2023/10/05 05:26:40;;;;;;;11.27;4.90;;;;;;;;;;6138771;23;20021;-82
2023/10/05 05:29:08;;;;;;;8.48;4.70;;;;;;;;;;6114021;23;20022;-82
2023/10/05 05:31:38;;;;;;;6.15;4.30;;;;;;;;;;6137894;23;20025;-82
2023/10/05 05:34:06;;;;;;;5.93;4.82;;;;;;;;;;6115328;23;20014;-81
2023/10/05 05:36:36;;;;;;;7.07;4.68;;;;;;;;;;6140617;23;20030;-81
2023/10/05 05:39:04;;;;;;;6.05;5.22;;;;;;;;;;6139995;23;20027;-81
2023/10/05 05:41:36;;;;;;;10.18;5.40;;;;;;;;;;6139076;23;20063;-81
2023/10/05 05:44:06;;;;;;;8.33;4.57;;;;;;;;;;6138064;23;20021;-81
2023/10/05 05:46:36;;;;;;;12.30;4.40;;;;;;;;;;6166637;23;20017;-81
2023/10/05 05:49:08;;;;;;;14.32;5.10;;;;;;;;;;6111687;23;20028;-81
2023/10/05 05:51:36;;;;;;;5.10;4.50;;;;;;;;;;6137110;23;20021;-81
2023/10/05 05:54:05;;;;;;;7.30;4.80;;;;;;;;;;6113464;23;20018;-81
2023/10/05 06:20:05;;;;;;;9.05;3.75;;;;;;;;;;6248085;22;20023;-79
2023/10/05 06:22:37;;;;;;;7.60;4.45;;;;;;;;;;6192886;23;20024;-78
2023/10/05 06:25:08;;;;;;;5.22;3.67;;;;;;;;;;6218229;23;20013;-78
2023/10/05 06:27:38;;;;;;;4.72;3.58;;;;;;;;;;6193507;23;20027;-78
2023/10/05 06:30:11;;;;;;;15.32;4.60;;;;;;;;;;6199210;23;20017;-80
2023/10/05 06:32:38;;;;;;;4.82;4.15;;;;;;;;;;6202490;23;20016;-80
2023/10/05 06:35:09;;;;;;;7.75;4.18;;;;;;;;;;6202183;23;20026;-82
2023/10/05 07:18:44;;;;;;;4.45;3.80;;;;;;;;;;6254996;22;20020;-82
2023/10/05 07:21:20;;;;;;;5.32;4.45;;;;;;;;;;6201917;23;20020;-81
2023/10/05 07:23:53;;;;;;;5.15;3.78;;;;;;;;;;6227288;23;20027;-81
2023/10/05 07:26:23;;;;;;;5.55;4.32;;;;;;;;;;6201735;23;20038;-81
2023/10/05 07:28:50;;;;;;;6.13;4.88;;;;;;;;;;6253604;23;20012;-81
2023/10/05 07:31:20;;;;;;;4.10;3.70;;;;;;;;;;6201001;23;20016;-81
2023/10/05 07:34:06;;;;;;;5.00;4.50;;;;;;;;;;6202381;23;20020;-81
2023/10/05 07:36:35;;;;;;;5.43;3.75;;;;;;;;;;6208514;23;20020;-81
2023/10/05 07:39:11;;;;;;;4.15;3.72;;;;;;;;;;6266494;23;20016;-81
2023/10/05 07:41:40;;;;;;;5.68;4.20;;;;;;;;;;6240820;23;20010;-80
2023/10/05 07:44:08;;;;;;;5.60;4.35;;;;;;;;;;6267645;23;20005;-80
2023/10/05 07:46:35;;;;;;;4.97;3.75;;;;;;;;;;6215848;23;20011;-81
2023/10/05 07:49:06;;;;;;;4.43;3.80;;;;;;;;;;6237695;23;20038;-81
2023/10/05 07:51:34;;;;;;;5.70;4.20;;;;;;;;;;6200467;23;20024;-81
2023/10/05 07:54:04;;;;;;;6.47;3.70;;;;;;;;;;6226212;23;20016;-81
2023/10/05 07:56:34;;;;;;;4.38;3.95;;;;;;;;;;6201354;23;20031;-82
2023/10/05 07:59:05;;;;;;;6.00;4.43;;;;;;;;;;6236861;23;20458;-81
2023/10/05 08:01:33;;;;;;;6.57;4.43;;;;;;;;;;6226065;23;20407;-81
2023/10/05 08:04:10;;;;;;;5.25;3.88;;;;;;;;;;6201422;23;20490;-81
2023/10/05 08:06:43;;;;;;;4.70;4.28;;;;;;;;;;6257981;22;20018;-81
2023/10/05 08:09:15;;;;;;;6.50;4.13;;;;;;;;;;6225424;23;20028;-81
2023/10/05 08:11:43;;;;;;;5.53;5.00;;;;;;;;;;6200158;23;20023;-82
2023/10/05 08:14:17;;;;;;;3.85;3.47;;;;;;;;;;6225610;23;20023;-82
2023/10/05 08:16:44;;;;;;;5.78;4.40;;;;;;;;;;6199760;23;20016;-82
2023/10/05 08:19:15;;;;;;;6.38;4.63;;;;;;;;;;6199939;23;20026;-82
2023/10/05 08:21:45;;;;;;;4.65;3.55;;;;;;;;;;6201232;23;20028;-82
2023/10/05 08:24:17;;;;;;;5.30;4.53;;;;;;;;;;6251002;23;20367;-82
2023/10/05 10:56:39;;;;;;;;;;;;;;;;;;;;;
2023/10/05 11:26:27;;;;;;;;;;;;;;;;;;;;;
2023/10/05 11:29:58;;;;;;;6.97;3.85;;;;;;;;;;6060204;23;20026;-82
2023/10/05 11:37:25;;;;;;;;;;;;;;;;;;;;;
2023/10/05 11:40:44;;;;;;;;;;;;;;;;;;;;;
2023/10/05 12:26:15;;;;;;;;;;;;;;;;;;;;;
2023/10/05 12:58:45;;;;;;;;;;;;;;;;;;;;;
2023/10/05 13:23:30;;;;;;;;;;;;;;;;;;;;;
2023/10/05 13:30:22;;;;;;;5.90;3.92;;;;;;;;;;6040853;23;20034;-82
2023/10/05 13:33:09;;;;;;;12.00;4.60;;;;;;;;;;5956130;24;20028;-82
2023/10/05 13:35:41;;;;;;;7.05;4.57;;;;;;;;;;6097651;23;20024;-82
2023/10/05 13:38:13;;;;;;;11.65;5.03;;;;;;;;;;6164033;23;20017;-82
2023/10/05 13:40:57;;;;;;;9.50;4.90;;;;;;;;;;6164187;23;20017;-82
2023/10/05 13:43:26;;;;;;;10.38;5.00;;;;;;;;;;6188268;23;20333;-82
2023/10/05 13:45:54;;;;;;;8.88;4.40;;;;;;;;;;6165828;23;20017;-82
2023/10/05 13:48:22;;;;;;;8.75;4.28;;;;;;;;;;6190654;23;20020;-82
2023/10/05 13:50:52;;;;;;;6.63;4.15;;;;;;;;;;6165765;23;20373;-83
2023/10/05 13:53:20;;;;;;;6.95;4.55;;;;;;;;;;6164321;23;20017;-83
2023/10/05 13:55:51;;;;;;;7.80;3.75;;;;;;;;;;6216176;23;20024;-83
2023/10/05 13:58:20;;;;;;;7.82;4.28;;;;;;;;;;6189593;23;20024;-82
2023/10/05 14:00:48;;;;;;;8.15;4.20;;;;;;;;;;6190114;23;20028;-83
2023/10/05 14:03:18;;;;;;;12.40;3.58;;;;;;;;;;6195112;23;20073;-82
2023/10/05 14:05:51;;;;;;;6.70;3.15;;;;;;;;;;6174931;23;20025;-82
2023/10/05 14:08:23;;;;;;;6.80;3.92;;;;;;;;;;6163956;23;20043;-82
2023/10/05 14:10:54;;;;;;;9.57;4.75;;;;;;;;;;6164750;23;20020;-82
2023/10/05 14:13:26;;;;;;;8.70;3.72;;;;;;;;;;6164586;23;20047;-82
2023/10/05 15:16:44;;;;;;;;;;;;;;;;;;;;;
2023/10/05 15:34:36;;;;;;;;;;;;;;;;;;;;;
2023/10/05 16:11:13;;;;;;;8.52;3.47;;;;;;;;;;6253398;22;20020;-80
2023/10/05 16:13:40;;;;;;;4.78;3.65;;;;;;;;;;6198045;23;20024;-80
2023/10/05 16:16:07;;;;;;;7.13;3.75;;;;;;;;;;6250299;22;20012;-80
2023/10/05 16:18:35;;;;;;;5.97;3.13;;;;;;;;;;6197801;23;20019;-80
2023/10/05 16:21:07;;;;;;;9.13;5.07;;;;;;;;;;6189599;23;20020;-81
2023/10/05 16:23:39;;;;;;;5.68;4.40;;;;;;;;;;6218426;23;20334;-81
2023/10/05 16:43:30;;;;;;;8.52;4.60;;;;;;;;;;6255542;22;20020;-80
2023/10/05 16:45:57;;;;;;;5.60;4.22;;;;;;;;;;6191352;23;20023;-81
2023/10/05 16:48:26;;;;;;;6.50;3.28;;;;;;;;;;6216923;23;20016;-81
2023/10/05 16:50:53;;;;;;;8.98;4.07;;;;;;;;;;6192214;23;20357;-81
2023/10/05 16:53:20;;;;;;;7.35;4.53;;;;;;;;;;6244514;23;20305;-81
2023/10/05 16:55:48;;;;;;;5.00;3.65;;;;;;;;;;6245383;22;20452;-81
2023/10/05 16:58:15;;;;;;;8.15;3.55;;;;;;;;;;6190717;23;20014;-81
2023/10/05 17:00:44;;;;;;;4.22;3.22;;;;;;;;;;6217866;23;20017;-81
2023/10/05 17:03:13;;;;;;;5.47;3.35;;;;;;;;;;6192065;23;20017;-81
2023/10/05 17:05:41;;;;;;;6.78;4.93;;;;;;;;;;6192413;22;20356;-81
2023/10/05 17:08:10;;;;;;;3.70;3.35;;;;;;;;;;6192575;23;20457;-81
2023/10/05 17:10:39;;;;;;;7.05;3.58;;;;;;;;;;6217558;23;20027;-81
2023/10/05 17:13:07;;;;;;;5.65;3.47;;;;;;;;;;6191498;23;20030;-81
2023/10/05 17:15:35;;;;;;;7.13;3.72;;;;;;;;;;6191578;22;20322;-81
2023/10/05 17:18:04;;;;;;;6.68;4.30;;;;;;;;;;6218157;23;20019;-81
2023/10/05 17:20:32;;;;;;;4.68;3.67;;;;;;;;;;6218450;23;20027;-81
2023/10/05 17:22:59;;;;;;;6.35;4.05;;;;;;;;;;6194781;23;20032;-81
2023/10/05 17:25:27;;;;;;;6.68;4.45;;;;;;;;;;6193552;22;20027;-81
2023/10/05 17:27:54;;;;;;;3.92;3.38;;;;;;;;;;6219431;23;20016;-81
2023/10/05 17:30:22;;;;;;;7.80;4.30;;;;;;;;;;6192275;23;20027;-81
2023/10/05 17:32:51;;;;;;;7.22;3.85;;;;;;;;;;6224518;23;20019;-81
2023/10/05 17:35:22;;;;;;;7.90;4.72;;;;;;;;;;6223676;23;20016;-81
2023/10/05 17:37:50;;;;;;;5.45;4.20;;;;;;;;;;6224895;23;20497;-81
2023/10/05 17:40:18;;;;;;;7.60;4.20;;;;;;;;;;6252014;23;20023;-81
2023/10/05 17:42:46;;;;;;;6.47;3.83;;;;;;;;;;6199939;23;20024;-81
2023/10/05 17:45:13;;;;;;;5.43;4.25;;;;;;;;;;6200722;23;20474;-81
2023/10/05 17:47:41;;;;;;;5.35;4.25;;;;;;;;;;6226599;23;20019;-81
2023/10/05 17:50:09;;;;;;;5.32;3.72;;;;;;;;;;6200524;23;20020;-81
2023/10/05 17:52:38;;;;;;;8.75;4.75;;;;;;;;;;6225372;23;20020;-81
2023/10/05 17:55:12;;;;;;;4.80;4.10;;;;;;;;;;6260358;23;20019;-81
2023/10/05 17:57:46;;;;;;;5.63;3.67;;;;;;;;;;6226147;23;20012;-81
2023/10/05 18:00:16;;;;;;;12.05;3.88;;;;;;;;;;6226326;23;20020;-81
2023/10/05 18:02:43;;;;;;;9.43;4.75;;;;;;;;;;6200337;23;20016;-81
2023/10/05 18:05:14;;;;;;;6.90;3.67;;;;;;;;;;6225953;22;20016;-81
2023/10/05 18:07:43;;;;;;;6.75;4.85;;;;;;;;;;6200668;23;20020;-81
2023/10/05 18:10:10;;;;;;;15.05;4.70;;;;;;;;;;6220209;23;20052;-81
2023/10/05 18:12:43;;;;;;;5.75;3.90;;;;;;;;;;6224059;23;20027;-81
2023/10/05 18:15:11;;;;;;;8.38;5.10;;;;;;;;;;6201413;22;20016;-81
2023/10/05 18:17:41;;;;;;;7.03;4.47;;;;;;;;;;6236123;23;20012;-81
2023/10/05 18:20:14;;;;;;;5.25;3.33;;;;;;;;;;6199605;23;20017;-81
2023/10/05 18:22:46;;;;;;;7.18;3.75;;;;;;;;;;6198495;23;20023;-81
2023/10/05 18:25:13;;;;;;;8.43;4.20;;;;;;;;;;6235471;22;20012;-81
2023/10/05 18:27:42;;;;;;;10.30;4.68;;;;;;;;;;6223981;23;20016;-81
2023/10/05 18:30:13;;;;;;;5.13;3.65;;;;;;;;;;6199581;23;20026;-81
2023/10/05 18:32:43;;;;;;;4.97;2.97;;;;;;;;;;6234774;23;20016;-81
2023/10/05 18:35:11;;;;;;;5.25;3.92;;;;;;;;;;6199511;22;20022;-81
2023/10/05 18:37:39;;;;;;;8.40;5.18;;;;;;;;;;6223764;23;20023;-81
2023/10/05 18:40:10;;;;;;;7.80;4.00;;;;;;;;;;6200084;23;20046;-81
2023/10/05 18:42:43;;;;;;;7.38;3.65;;;;;;;;;;6198715;23;20012;-81
2023/10/05 18:45:13;;;;;;;5.15;3.83;;;;;;;;;;6204131;23;20019;-80
2023/10/05 18:47:41;;;;;;;4.60;3.70;;;;;;;;;;6199573;23;20487;-81
2023/10/05 18:50:12;;;;;;;5.25;3.67;;;;;;;;;;6234586;23;20019;-81
2023/10/05 18:52:39;;;;;;;7.03;3.65;;;;;;;;;;6223629;23;20016;-80
2023/10/05 18:55:10;;;;;;;11.70;4.20;;;;;;;;;;6200007;23;20462;-80
2023/10/05 18:57:40;;;;;;;7.32;4.75;;;;;;;;;;6199585;23;20487;-81
2023/10/05 19:00:10;;;;;;;7.60;4.20;;;;;;;;;;6224615;23;20019;-81
2023/10/05 19:02:38;;;;;;;6.30;5.55;;;;;;;;;;6200852;23;20020;-81
2023/10/05 19:05:10;;;;;;;5.28;4.15;;;;;;;;;;6201668;23;20016;-81
2023/10/05 19:07:39;;;;;;;6.47;3.97;;;;;;;;;;6224057;23;20026;-81
2023/10/05 19:10:10;;;;;;;8.45;5.32;;;;;;;;;;6199496;23;20024;-81
2023/10/05 19:12:39;;;;;;;5.65;4.20;;;;;;;;;;6199570;23;20490;-81
2023/10/05 19:15:07;;;;;;;8.32;4.55;;;;;;;;;;6200474;23;20054;-81
2023/10/05 19:17:34;;;;;;;5.82;4.50;;;;;;;;;;6200209;23;20026;-81
2023/10/05 19:20:07;;;;;;;4.15;3.33;;;;;;;;;;6260922;23;20384;-80
2023/10/05 19:22:34;;;;;;;9.10;5.97;;;;;;;;;;6224372;23;20023;-80
2023/10/05 19:25:02;;;;;;;5.47;4.85;;;;;;;;;;6224070;23;20368;-81
2023/10/05 19:27:30;;;;;;;6.43;5.05;;;;;;;;;;6224565;23;20027;-80
2023/10/05 19:30:01;;;;;;;15.43;5.03;;;;;;;;;;6200130;23;20022;-80
2023/10/05 19:32:33;;;;;;;6.78;4.28;;;;;;;;;;6224403;23;20472;-81
2023/10/05 19:35:01;;;;;;;6.45;4.35;;;;;;;;;;6199376;23;20027;-81
2023/10/05 19:37:31;;;;;;;7.05;5.80;;;;;;;;;;6227451;22;20012;-80
2023/10/05 19:40:01;;;;;;;5.18;3.80;;;;;;;;;;6214773;23;20042;-81
2023/10/05 19:42:32;;;;;;;6.05;5.00;;;;;;;;;;6212584;23;20658;-81
2023/10/05 19:45:01;;;;;;;5.50;4.60;;;;;;;;;;6235351;23;20016;-81
2023/10/05 19:47:31;;;;;;;5.30;3.97;;;;;;;;;;6208418;23;20038;-82
2023/10/05 19:49:59;;;;;;;5.85;4.30;;;;;;;;;;6207095;23;20018;-82
2023/10/05 19:52:27;;;;;;;6.38;4.82;;;;;;;;;;6232348;23;20043;-82
2023/10/05 19:54:56;;;;;;;5.70;5.10;;;;;;;;;;6233209;23;20013;-82
2023/10/05 19:57:24;;;;;;;6.40;4.93;;;;;;;;;;6230810;23;20020;-82
2023/10/05 19:59:52;;;;;;;7.35;5.07;;;;;;;;;;6205738;23;20016;-82
2023/10/05 20:02:21;;;;;;;9.98;5.20;;;;;;;;;;6206325;23;20460;-82
2023/10/05 20:04:51;;;;;;;10.63;4.45;;;;;;;;;;6207323;23;20026;-82
2023/10/05 20:07:18;;;;;;;6.95;5.10;;;;;;;;;;6205657;23;20028;-81
2023/10/05 20:09:46;;;;;;;6.18;4.47;;;;;;;;;;6205858;23;20020;-81
2023/10/05 20:12:13;;;;;;;7.68;4.93;;;;;;;;;;6256473;23;20016;-81
2023/10/05 20:14:42;;;;;;;7.15;4.88;;;;;;;;;;6230409;23;20027;-81
2023/10/05 20:17:10;;;;;;;8.30;5.10;;;;;;;;;;6255208;22;20755;-81
2023/10/05 20:19:38;;;;;;;8.60;5.28;;;;;;;;;;6204868;23;20020;-82
2023/10/05 20:22:06;;;;;;;11.65;7.40;;;;;;;;;;6207361;23;20367;-82
2023/10/05 20:24:36;;;;;;;5.72;5.10;;;;;;;;;;6231873;23;20024;-82
2023/10/05 20:27:08;;;;;;;5.55;4.97;;;;;;;;;;6206375;23;20030;-82
2023/10/05 20:29:37;;;;;;;6.40;4.82;;;;;;;;;;6233879;23;20348;-82
2023/10/05 20:32:05;;;;;;;5.30;4.05;;;;;;;;;;6207759;23;20034;-82
2023/10/05 20:34:34;;;;;;;5.63;4.28;;;;;;;;;;6208383;23;20031;-82
2023/10/05 20:37:08;;;;;;;6.47;4.78;;;;;;;;;;6206259;23;20030;-82
2023/10/05 20:39:36;;;;;;;6.40;4.47;;;;;;;;;;6228387;23;20031;-83
2023/10/05 20:42:05;;;;;;;5.22;4.18;;;;;;;;;;6255327;23;20024;-82
2023/10/05 20:44:35;;;;;;;6.32;5.57;;;;;;;;;;6205769;23;20494;-82
2023/10/05 20:47:03;;;;;;;8.15;4.50;;;;;;;;;;6230064;23;20023;-83
2023/10/05 20:49:37;;;;;;;6.07;4.05;;;;;;;;;;6231176;23;20023;-83
2023/10/05 20:52:05;;;;;;;7.47;4.30;;;;;;;;;;6207013;23;20020;-82
2023/10/05 20:54:36;;;;;;;6.50;4.45;;;;;;;;;;6232186;23;20030;-83
2023/10/05 20:57:04;;;;;;;6.85;4.43;;;;;;;;;;6234784;23;20016;-83
2023/10/05 20:59:31;;;;;;;6.43;3.22;;;;;;;;;;6230435;23;20022;-83
2023/10/05 21:02:02;;;;;;;4.90;3.50;;;;;;;;;;6230604;23;20024;-82
2023/10/05 21:04:33;;;;;;;6.55;4.43;;;;;;;;;;6231226;23;20012;-82
2023/10/05 21:07:04;;;;;;;8.35;4.50;;;;;;;;;;6230871;23;20016;-83
2023/10/05 21:09:32;;;;;;;4.43;3.53;;;;;;;;;;6206704;23;20013;-83
2023/10/05 21:12:02;;;;;;;5.95;4.07;;;;;;;;;;6231075;23;20022;-82
2023/10/05 21:14:30;;;;;;;6.75;3.70;;;;;;;;;;6231515;23;20016;-83
2023/10/05 21:16:59;;;;;;;6.63;3.92;;;;;;;;;;6229793;23;20031;-82
2023/10/05 21:19:27;;;;;;;5.55;3.75;;;;;;;;;;6204723;23;20021;-82
2023/10/05 21:21:54;;;;;;;5.65;3.70;;;;;;;;;;6228959;23;20009;-82
2023/10/05 21:24:21;;;;;;;4.13;3.53;;;;;;;;;;6255441;23;20020;-82
2023/10/05 21:26:49;;;;;;;7.22;4.55;;;;;;;;;;6229460;23;20012;-82
2023/10/05 21:29:17;;;;;;;5.45;4.32;;;;;;;;;;6240294;23;20012;-83
2023/10/05 21:31:45;;;;;;;5.10;4.15;;;;;;;;;;6228403;23;20020;-83
2023/10/05 21:34:15;;;;;;;6.13;3.38;;;;;;;;;;6229106;23;20020;-82
2023/10/05 21:36:42;;;;;;;6.53;3.72;;;;;;;;;;6204254;23;20356;-83
2023/10/05 21:39:12;;;;;;;5.55;3.85;;;;;;;;;;6205105;23;20034;-83
2023/10/05 21:41:42;;;;;;;6.00;4.63;;;;;;;;;;6207058;23;20030;-83
2023/10/05 21:44:11;;;;;;;6.47;4.40;;;;;;;;;;6206725;23;20030;-82
2023/10/05 21:46:43;;;;;;;9.45;5.88;;;;;;;;;;6206707;23;20020;-82
2023/10/05 21:49:10;;;;;;;7.45;5.28;;;;;;;;;;6206077;23;20026;-83
2023/10/05 21:51:37;;;;;;;5.63;4.40;;;;;;;;;;6266940;23;20024;-82
2023/10/05 21:54:05;;;;;;;11.48;6.28;;;;;;;;;;6205635;23;20026;-82
2023/10/05 21:56:34;;;;;;;10.68;6.88;;;;;;;;;;6230023;23;20348;-83
2023/10/05 21:59:03;;;;;;;12.30;6.45;;;;;;;;;;6205019;23;20341;-83
2023/10/05 22:01:32;;;;;;;36.58;7.97;;;;;;;;;;6204247;23;20016;-83
2023/10/05 22:04:00;;;;;;;21.73;9.45;;;;;;;;;;6205113;23;20020;-83
2023/10/05 22:06:30;;;;;;;9.02;6.43;;;;;;;;;;6263482;22;20016;-83
2023/10/05 22:08:58;;;;;;;10.40;7.30;;;;;;;;;;6232647;23;20008;-83
2023/10/05 22:11:28;;;;;;;15.02;7.38;;;;;;;;;;6206599;23;20098;-83
2023/10/05 22:13:58;;;;;;;7.90;5.20;;;;;;;;;;6208030;23;20023;-83
2023/10/05 22:16:32;;;;;;;11.07;6.77;;;;;;;;;;6208863;23;20020;-83
2023/10/05 22:19:03;;;;;;;9.07;6.63;;;;;;;;;;6205853;23;20024;-83
2023/10/05 22:21:33;;;;;;;10.25;6.07;;;;;;;;;;6206980;23;20026;-83
2023/10/05 22:24:01;;;;;;;8.52;5.90;;;;;;;;;;6205104;23;20016;-82
2023/10/05 22:26:28;;;;;;;7.75;6.68;;;;;;;;;;6258950;22;20022;-83
2023/10/05 22:28:57;;;;;;;10.60;7.30;;;;;;;;;;6206250;23;20024;-82
2023/10/05 22:31:24;;;;;;;8.50;6.00;;;;;;;;;;6204686;23;20016;-82
2023/10/05 22:33:52;;;;;;;12.45;7.60;;;;;;;;;;6205724;23;20020;-82
2023/10/05 22:36:21;;;;;;;26.45;9.35;;;;;;;;;;6231160;23;20020;-82
2023/10/05 22:38:50;;;;;;;11.63;8.60;;;;;;;;;;6231070;23;20042;-82
2023/10/05 22:41:18;;;;;;;11.75;7.07;;;;;;;;;;6230598;23;20016;-83
2023/10/05 22:43:48;;;;;;;8.88;6.20;;;;;;;;;;6230910;23;20012;-83
2023/10/05 22:46:16;;;;;;;13.07;7.22;;;;;;;;;;6206219;23;20023;-82
2023/10/05 22:48:44;;;;;;;21.65;8.90;;;;;;;;;;6204995;23;20016;-82
2023/10/05 22:51:17;;;;;;;12.80;8.00;;;;;;;;;;6256599;23;20014;-82
2023/10/05 22:53:47;;;;;;;13.15;6.82;;;;;;;;;;6205264;23;20031;-82
2023/10/05 22:56:14;;;;;;;13.88;8.05;;;;;;;;;;6205916;23;20016;-82
2023/10/05 22:58:41;;;;;;;11.77;8.07;;;;;;;;;;6231542;23;20024;-82
2023/10/05 23:01:09;;;;;;;12.75;8.13;;;;;;;;;;6230036;23;20012;-82
2023/10/05 23:03:36;;;;;;;14.20;8.10;;;;;;;;;;6230396;23;20026;-82